sensor_id;sensor_type;location;lat;lon;timestamp;pressure;altitude;pressure_sealevel;temperature;humidity
70011;BME280;59543;37.950;-122.338;2022-12-22T00:00:48;102178.44;;;13.67;47.70
70011;BME280;59543;37.950;-122.338;2022-12-22T00:03:32;102179.81;;;13.61;48.20
70011;BME280;59543;37.950;-122.338;2022-12-22T00:06:16;102179.19;;;13.48;48.78
70011;BME280;59543;37.950;-122.338;2022-12-22T00:09:00;102169.75;;;13.42;48.07
70011;BME280;59543;37.950;-122.338;2022-12-22T00:11:44;102180.31;;;13.13;48.59
70011;BME280;59543;37.950;-122.338;2022-12-22T00:14:28;102169.13;;;13.18;48.21
70011;BME280;59543;37.950;-122.338;2022-12-22T00:17:19;102170.34;;;13.25;48.32
70011;BME280;59543;37.950;-122.338;2022-12-22T00:20:12;102168.47;;;13.46;47.32
70011;BME280;59543;37.950;-122.338;2022-12-22T00:22:57;102163.81;;;13.27;47.91
70011;BME280;59543;37.950;-122.338;2022-12-22T00:25:41;102166.06;;;13.43;47.75
70011;BME280;59543;37.950;-122.338;2022-12-22T00:28:25;102165.00;;;13.02;48.21
70011;BME280;59543;37.950;-122.338;2022-12-22T00:31:08;102158.53;;;13.26;47.72
70011;BME280;59543;37.950;-122.338;2022-12-22T00:33:52;102157.97;;;13.11;47.94
70011;BME280;59543;37.950;-122.338;2022-12-22T00:36:36;102153.94;;;12.85;47.85
70011;BME280;59543;37.950;-122.338;2022-12-22T00:39:20;102154.63;;;12.66;48.45
70011;BME280;59543;37.950;-122.338;2022-12-22T00:42:04;102148.69;;;13.04;46.99
70011;BME280;59543;37.950;-122.338;2022-12-22T00:44:48;102142.63;;;12.91;47.44
70011;BME280;59543;37.950;-122.338;2022-12-22T00:47:32;102139.91;;;12.70;48.20
70011;BME280;59543;37.950;-122.338;2022-12-22T00:50:16;102132.72;;;12.80;48.01
70011;BME280;59543;37.950;-122.338;2022-12-22T00:53:00;102128.06;;;12.82;47.92
70011;BME280;59543;37.950;-122.338;2022-12-22T00:55:45;102133.28;;;12.63;48.88
70011;BME280;59543;37.950;-122.338;2022-12-22T00:58:30;102135.25;;;12.61;48.84
70011;BME280;59543;37.950;-122.338;2022-12-22T01:01:14;102136.19;;;12.71;48.86
70011;BME280;59543;37.950;-122.338;2022-12-22T01:03:58;102136.06;;;12.72;49.01
70011;BME280;59543;37.950;-122.338;2022-12-22T01:06:42;102138.75;;;12.40;49.94
70011;BME280;59543;37.950;-122.338;2022-12-22T01:09:26;102135.47;;;12.25;50.63
70011;BME280;59543;37.950;-122.338;2022-12-22T01:12:13;102134.53;;;12.04;51.41
70011;BME280;59543;37.950;-122.338;2022-12-22T01:14:58;102129.41;;;11.89;52.28
70011;BME280;59543;37.950;-122.338;2022-12-22T01:17:42;102122.41;;;11.98;52.26
70011;BME280;59543;37.950;-122.338;2022-12-22T01:20:26;102121.75;;;12.06;51.90
70011;BME280;59543;37.950;-122.338;2022-12-22T01:23:10;102121.28;;;11.78;52.98
70011;BME280;59543;37.950;-122.338;2022-12-22T01:25:54;102120.91;;;12.05;52.51
70011;BME280;59543;37.950;-122.338;2022-12-22T01:28:38;102125.31;;;11.84;52.97
70011;BME280;59543;37.950;-122.338;2022-12-22T01:31:27;102125.59;;;11.58;53.95
70011;BME280;59543;37.950;-122.338;2022-12-22T01:34:11;102120.06;;;11.71;53.92
70011;BME280;59543;37.950;-122.338;2022-12-22T01:36:55;102126.78;;;11.65;54.64
70011;BME280;59543;37.950;-122.338;2022-12-22T01:39:39;102129.94;;;11.26;54.35
70011;BME280;59543;37.950;-122.338;2022-12-22T01:42:23;102132.06;;;10.98;54.46
70011;BME280;59543;37.950;-122.338;2022-12-22T01:45:18;102130.03;;;10.78;54.90
70011;BME280;59543;37.950;-122.338;2022-12-22T01:48:03;102128.38;;;10.64;54.83
70011;BME280;59543;37.950;-122.338;2022-12-22T01:50:47;102126.69;;;10.63;55.51
70011;BME280;59543;37.950;-122.338;2022-12-22T01:53:31;102126.78;;;10.61;55.25
70011;BME280;59543;37.950;-122.338;2022-12-22T01:56:16;102125.06;;;10.60;54.85
70011;BME280;59543;37.950;-122.338;2022-12-22T01:59:01;102127.16;;;10.68;54.83
70011;BME280;59543;37.950;-122.338;2022-12-22T02:01:47;102127.84;;;10.83;53.40
70011;BME280;59543;37.950;-122.338;2022-12-22T02:04:32;102131.13;;;10.75;54.13
70011;BME280;59543;37.950;-122.338;2022-12-22T02:07:41;102125.69;;;10.64;54.06
70011;BME280;59543;37.950;-122.338;2022-12-22T02:13:32;102136.75;;;11.07;51.81
70011;BME280;59543;37.950;-122.338;2022-12-22T02:16:21;102137.91;;;10.92;52.29
70011;BME280;59543;37.950;-122.338;2022-12-22T02:19:13;102133.41;;;10.92;51.53
70011;BME280;59543;37.950;-122.338;2022-12-22T02:22:28;102141.13;;;10.97;51.94
70011;BME280;59543;37.950;-122.338;2022-12-22T02:25:21;102133.94;;;10.73;53.07
70011;BME280;59543;37.950;-122.338;2022-12-22T02:28:08;102137.16;;;10.55;54.25
70011;BME280;59543;37.950;-122.338;2022-12-22T02:30:54;102135.47;;;10.41;54.03
70011;BME280;59543;37.950;-122.338;2022-12-22T02:33:39;102125.81;;;10.25;53.99
70011;BME280;59543;37.950;-122.338;2022-12-22T02:48:15;102140.78;;;10.17;54.71
70011;BME280;59543;37.950;-122.338;2022-12-22T02:51:04;102139.53;;;10.10;55.13
70011;BME280;59543;37.950;-122.338;2022-12-22T02:53:50;102152.56;;;10.03;55.56
70011;BME280;59543;37.950;-122.338;2022-12-22T02:56:35;102149.91;;;9.77;54.84
70011;BME280;59543;37.950;-122.338;2022-12-22T02:59:19;102150.13;;;9.74;55.56
70011;BME280;59543;37.950;-122.338;2022-12-22T03:02:03;102150.19;;;10.11;54.14
70011;BME280;59543;37.950;-122.338;2022-12-22T03:04:47;102147.41;;;10.00;53.12
70011;BME280;59543;37.950;-122.338;2022-12-22T03:07:30;102153.06;;;9.58;53.36
70011;BME280;59543;37.950;-122.338;2022-12-22T03:10:14;102149.81;;;9.79;52.88
70011;BME280;59543;37.950;-122.338;2022-12-22T03:12:58;102152.47;;;9.92;52.86
70011;BME280;59543;37.950;-122.338;2022-12-22T03:15:43;102144.34;;;9.68;52.56
70011;BME280;59543;37.950;-122.338;2022-12-22T03:18:27;102151.22;;;9.59;53.63
70011;BME280;59543;37.950;-122.338;2022-12-22T03:21:11;102150.47;;;9.44;53.15
70011;BME280;59543;37.950;-122.338;2022-12-22T03:23:55;102155.97;;;9.43;53.84
70011;BME280;59543;37.950;-122.338;2022-12-22T03:26:39;102157.25;;;9.75;53.12
70011;BME280;59543;37.950;-122.338;2022-12-22T03:29:05;102155.84;;;9.31;54.38
70011;BME280;59543;37.950;-122.338;2022-12-22T03:31:31;102145.22;;;9.30;54.43
70011;BME280;59543;37.950;-122.338;2022-12-22T03:33:57;102130.91;;;9.29;54.18
70011;BME280;59543;37.950;-122.338;2022-12-22T03:36:22;102127.06;;;9.21;54.91
70011;BME280;59543;37.950;-122.338;2022-12-22T03:38:48;102126.44;;;9.30;54.44
70011;BME280;59543;37.950;-122.338;2022-12-22T03:41:14;102121.78;;;9.32;54.72
70011;BME280;59543;37.950;-122.338;2022-12-22T03:43:58;102126.41;;;9.55;54.23
70011;BME280;59543;37.950;-122.338;2022-12-22T03:46:42;102134.03;;;9.61;53.54
70011;BME280;59543;37.950;-122.338;2022-12-22T03:49:08;102140.69;;;9.56;53.85
70011;BME280;59543;37.950;-122.338;2022-12-22T03:51:38;102143.09;;;9.48;54.96
70011;BME280;59543;37.950;-122.338;2022-12-22T03:54:04;102146.28;;;9.40;55.27
70011;BME280;59543;37.950;-122.338;2022-12-22T03:56:30;102164.97;;;9.29;56.43
70011;BME280;59543;37.950;-122.338;2022-12-22T03:58:56;102161.22;;;9.44;56.74
70011;BME280;59543;37.950;-122.338;2022-12-22T04:01:22;102158.09;;;9.50;56.63
70011;BME280;59543;37.950;-122.338;2022-12-22T04:03:48;102151.88;;;9.24;57.58
70011;BME280;59543;37.950;-122.338;2022-12-22T04:06:15;102155.00;;;9.31;57.34
70011;BME280;59543;37.950;-122.338;2022-12-22T04:08:41;102153.59;;;9.38;56.51
70011;BME280;59543;37.950;-122.338;2022-12-22T04:11:08;102148.84;;;9.29;55.41
70011;BME280;59543;37.950;-122.338;2022-12-22T04:13:52;102147.13;;;9.53;53.89
70011;BME280;59543;37.950;-122.338;2022-12-22T04:16:18;102139.09;;;9.28;54.28
70011;BME280;59543;37.950;-122.338;2022-12-22T04:18:44;102132.44;;;9.33;54.43
70011;BME280;59543;37.950;-122.338;2022-12-22T04:21:09;102126.19;;;9.20;54.52
70011;BME280;59543;37.950;-122.338;2022-12-22T04:23:35;102133.28;;;9.47;55.41
70011;BME280;59543;37.950;-122.338;2022-12-22T04:26:01;102127.16;;;9.57;55.80
70011;BME280;59543;37.950;-122.338;2022-12-22T04:28:27;102131.03;;;9.53;56.36
70011;BME280;59543;37.950;-122.338;2022-12-22T04:30:53;102141.78;;;9.41;56.34
70011;BME280;59543;37.950;-122.338;2022-12-22T04:33:18;102142.63;;;9.28;57.41
70011;BME280;59543;37.950;-122.338;2022-12-22T04:35:44;102141.97;;;9.12;58.05
70011;BME280;59543;37.950;-122.338;2022-12-22T04:38:10;102152.94;;;9.09;58.55
70011;BME280;59543;37.950;-122.338;2022-12-22T04:40:36;102149.56;;;9.05;58.74
70011;BME280;59543;37.950;-122.338;2022-12-22T04:43:02;102140.94;;;8.87;59.35
70011;BME280;59543;37.950;-122.338;2022-12-22T04:45:28;102140.84;;;8.89;59.46
70011;BME280;59543;37.950;-122.338;2022-12-22T04:47:53;102145.09;;;9.31;58.79
70011;BME280;59543;37.950;-122.338;2022-12-22T04:50:19;102137.66;;;8.97;59.62
70011;BME280;59543;37.950;-122.338;2022-12-22T04:52:45;102129.91;;;9.05;59.62
70011;BME280;59543;37.950;-122.338;2022-12-22T04:55:11;102137.91;;;8.66;60.84
70011;BME280;59543;37.950;-122.338;2022-12-22T04:57:37;102141.34;;;8.81;60.22
70011;BME280;59543;37.950;-122.338;2022-12-22T05:00:03;102137.22;;;8.63;60.75
70011;BME280;59543;37.950;-122.338;2022-12-22T05:02:29;102129.50;;;8.58;61.16
70011;BME280;59543;37.950;-122.338;2022-12-22T05:04:55;102139.50;;;8.69;60.40
70011;BME280;59543;37.950;-122.338;2022-12-22T05:07:20;102128.84;;;8.95;60.05
70011;BME280;59543;37.950;-122.338;2022-12-22T05:09:46;102129.53;;;9.24;59.20
70011;BME280;59543;37.950;-122.338;2022-12-22T05:12:12;102124.91;;;9.13;59.32
70011;BME280;59543;37.950;-122.338;2022-12-22T05:14:56;102124.69;;;9.16;59.14
70011;BME280;59543;37.950;-122.338;2022-12-22T05:17:22;102130.47;;;9.10;59.83
70011;BME280;59543;37.950;-122.338;2022-12-22T05:19:48;102125.03;;;9.24;59.53
70011;BME280;59543;37.950;-122.338;2022-12-22T05:22:14;102127.88;;;9.08;59.92
70011;BME280;59543;37.950;-122.338;2022-12-22T05:24:40;102127.25;;;9.05;60.03
70011;BME280;59543;37.950;-122.338;2022-12-22T05:27:05;102123.03;;;8.88;60.40
70011;BME280;59543;37.950;-122.338;2022-12-22T05:29:31;102123.34;;;8.83;60.43
70011;BME280;59543;37.950;-122.338;2022-12-22T05:31:57;102125.75;;;9.01;59.68
70011;BME280;59543;37.950;-122.338;2022-12-22T05:34:23;102116.50;;;9.05;59.73
70011;BME280;59543;37.950;-122.338;2022-12-22T05:36:49;102123.16;;;8.99;59.44
70011;BME280;59543;37.950;-122.338;2022-12-22T05:39:15;102127.66;;;8.99;58.92
70011;BME280;59543;37.950;-122.338;2022-12-22T05:41:40;102136.34;;;8.89;59.60
70011;BME280;59543;37.950;-122.338;2022-12-22T05:44:06;102131.31;;;8.98;58.83
70011;BME280;59543;37.950;-122.338;2022-12-22T05:46:32;102142.28;;;9.07;58.57
70011;BME280;59543;37.950;-122.338;2022-12-22T05:48:58;102138.09;;;8.90;59.13
70011;BME280;59543;37.950;-122.338;2022-12-22T05:51:24;102138.09;;;8.90;59.27
70011;BME280;59543;37.950;-122.338;2022-12-22T05:53:49;102142.75;;;8.74;59.95
70011;BME280;59543;37.950;-122.338;2022-12-22T05:56:18;102143.56;;;8.62;60.70
70011;BME280;59543;37.950;-122.338;2022-12-22T05:58:44;102146.81;;;8.67;60.74
70011;BME280;59543;37.950;-122.338;2022-12-22T06:01:10;102152.78;;;8.58;61.11
70011;BME280;59543;37.950;-122.338;2022-12-22T06:03:36;102151.31;;;8.66;60.84
70011;BME280;59543;37.950;-122.338;2022-12-22T06:06:01;102146.03;;;8.65;61.30
70011;BME280;59543;37.950;-122.338;2022-12-22T06:08:27;102144.75;;;8.58;61.54
70011;BME280;59543;37.950;-122.338;2022-12-22T06:10:54;102142.78;;;8.60;61.34
70011;BME280;59543;37.950;-122.338;2022-12-22T06:13:20;102153.47;;;8.74;60.53
70011;BME280;59543;37.950;-122.338;2022-12-22T06:15:46;102145.59;;;8.58;61.25
70011;BME280;59543;37.950;-122.338;2022-12-22T06:18:12;102139.22;;;8.46;61.73
70011;BME280;59543;37.950;-122.338;2022-12-22T06:20:38;102133.56;;;8.37;61.99
70011;BME280;59543;37.950;-122.338;2022-12-22T06:23:04;102130.59;;;8.41;62.63
70011;BME280;59543;37.950;-122.338;2022-12-22T06:25:30;102132.88;;;8.47;62.15
70011;BME280;59543;37.950;-122.338;2022-12-22T06:27:56;102130.34;;;8.59;62.12
70011;BME280;59543;37.950;-122.338;2022-12-22T06:30:22;102134.91;;;8.44;62.38
70011;BME280;59543;37.950;-122.338;2022-12-22T06:32:47;102134.63;;;8.34;63.04
70011;BME280;59543;37.950;-122.338;2022-12-22T06:35:13;102137.41;;;8.33;63.55
70011;BME280;59543;37.950;-122.338;2022-12-22T06:37:39;102148.97;;;8.33;63.25
70011;BME280;59543;37.950;-122.338;2022-12-22T06:40:06;102147.91;;;8.36;63.45
70011;BME280;59543;37.950;-122.338;2022-12-22T06:42:32;102146.09;;;8.36;63.16
70011;BME280;59543;37.950;-122.338;2022-12-22T06:45:16;102141.44;;;8.40;62.98
70011;BME280;59543;37.950;-122.338;2022-12-22T06:47:42;102140.31;;;8.57;61.94
70011;BME280;59543;37.950;-122.338;2022-12-22T06:50:08;102137.84;;;8.54;62.09
70011;BME280;59543;37.950;-122.338;2022-12-22T06:52:34;102135.38;;;8.51;61.86
70011;BME280;59543;37.950;-122.338;2022-12-22T06:55:00;102131.41;;;8.96;60.07
70011;BME280;59543;37.950;-122.338;2022-12-22T06:57:26;102126.66;;;8.74;60.65
70011;BME280;59543;37.950;-122.338;2022-12-22T06:59:52;102130.53;;;8.83;60.03
70011;BME280;59543;37.950;-122.338;2022-12-22T07:02:18;102120.78;;;8.82;60.30
70011;BME280;59543;37.950;-122.338;2022-12-22T07:04:44;102125.19;;;8.96;59.53
70011;BME280;59543;37.950;-122.338;2022-12-22T07:07:10;102128.56;;;8.72;60.49
70011;BME280;59543;37.950;-122.338;2022-12-22T07:09:36;102111.38;;;8.62;61.38
70011;BME280;59543;37.950;-122.338;2022-12-22T07:12:02;102105.13;;;8.49;61.52
70011;BME280;59543;37.950;-122.338;2022-12-22T07:14:28;102108.88;;;8.46;61.05
70011;BME280;59543;37.950;-122.338;2022-12-22T07:16:53;102102.97;;;8.54;60.70
70011;BME280;59543;37.950;-122.338;2022-12-22T07:19:19;102104.94;;;8.37;61.23
70011;BME280;59543;37.950;-122.338;2022-12-22T07:21:45;102103.09;;;8.52;60.76
70011;BME280;59543;37.950;-122.338;2022-12-22T07:24:15;102105.56;;;8.55;60.32
70011;BME280;59543;37.950;-122.338;2022-12-22T07:26:47;102103.63;;;8.57;60.05
70011;BME280;59543;37.950;-122.338;2022-12-22T07:29:13;102109.09;;;8.56;60.49
70011;BME280;59543;37.950;-122.338;2022-12-22T07:31:39;102116.59;;;8.51;60.90
70011;BME280;59543;37.950;-122.338;2022-12-22T07:34:04;102120.16;;;8.37;60.92
70011;BME280;59543;37.950;-122.338;2022-12-22T07:36:30;102116.81;;;8.33;60.91
70011;BME280;59543;37.950;-122.338;2022-12-22T07:38:56;102117.47;;;8.10;61.81
70011;BME280;59543;37.950;-122.338;2022-12-22T07:41:22;102121.31;;;8.33;61.04
70011;BME280;59543;37.950;-122.338;2022-12-22T07:44:06;102126.88;;;8.30;61.01
70011;BME280;59543;37.950;-122.338;2022-12-22T07:46:36;102131.97;;;8.20;61.86
70011;BME280;59543;37.950;-122.338;2022-12-22T07:49:03;102141.00;;;8.05;62.21
70011;BME280;59543;37.950;-122.338;2022-12-22T07:51:47;102146.56;;;8.16;62.16
70011;BME280;59543;37.950;-122.338;2022-12-22T07:54:14;102153.56;;;7.90;64.82
70011;BME280;59543;37.950;-122.338;2022-12-22T07:56:40;102146.75;;;8.13;65.39
70011;BME280;59543;37.950;-122.338;2022-12-22T07:59:06;102144.66;;;8.04;66.27
70011;BME280;59543;37.950;-122.338;2022-12-22T08:01:32;102143.50;;;8.08;66.55
70011;BME280;59543;37.950;-122.338;2022-12-22T08:03:59;102144.75;;;7.88;67.00
70011;BME280;59543;37.950;-122.338;2022-12-22T08:06:25;102150.03;;;8.04;67.59
70011;BME280;59543;37.950;-122.338;2022-12-22T08:08:51;102157.75;;;7.94;68.38
70011;BME280;59543;37.950;-122.338;2022-12-22T08:11:16;102152.81;;;7.73;70.58
70011;BME280;59543;37.950;-122.338;2022-12-22T08:13:43;102151.75;;;7.76;71.46
70011;BME280;59543;37.950;-122.338;2022-12-22T08:16:10;102158.38;;;7.56;72.84
70011;BME280;59543;37.950;-122.338;2022-12-22T08:18:36;102160.16;;;7.41;73.59
70011;BME280;59543;37.950;-122.338;2022-12-22T08:21:04;102152.97;;;7.27;74.09
70011;BME280;59543;37.950;-122.338;2022-12-22T08:23:31;102146.34;;;7.19;74.77
70011;BME280;59543;37.950;-122.338;2022-12-22T08:25:59;102135.56;;;7.20;73.89
70011;BME280;59543;37.950;-122.338;2022-12-22T08:28:27;102125.34;;;7.27;72.64
70011;BME280;59543;37.950;-122.338;2022-12-22T08:30:54;102129.91;;;7.25;72.07
70011;BME280;59543;37.950;-122.338;2022-12-22T08:33:19;102123.78;;;7.08;72.06
70011;BME280;59543;37.950;-122.338;2022-12-22T08:35:46;102118.06;;;7.15;71.12
70011;BME280;59543;37.950;-122.338;2022-12-22T08:38:12;102121.41;;;7.18;70.81
70011;BME280;59543;37.950;-122.338;2022-12-22T08:40:39;102112.91;;;7.12;71.54
70011;BME280;59543;37.950;-122.338;2022-12-22T08:43:07;102116.06;;;7.18;71.06
70011;BME280;59543;37.950;-122.338;2022-12-22T08:45:34;102117.09;;;7.16;71.62
70011;BME280;59543;37.950;-122.338;2022-12-22T08:48:00;102120.38;;;7.21;71.30
70011;BME280;59543;37.950;-122.338;2022-12-22T08:50:25;102129.81;;;7.12;71.58
70011;BME280;59543;37.950;-122.338;2022-12-22T08:52:51;102135.81;;;7.01;72.18
70011;BME280;59543;37.950;-122.338;2022-12-22T08:55:17;102147.44;;;6.86;72.79
70011;BME280;59543;37.950;-122.338;2022-12-22T08:57:43;102137.78;;;6.98;72.63
70011;BME280;59543;37.950;-122.338;2022-12-22T09:00:13;102143.31;;;6.80;72.80
70011;BME280;59543;37.950;-122.338;2022-12-22T09:02:39;102137.44;;;7.04;71.80
70011;BME280;59543;37.950;-122.338;2022-12-22T09:05:05;102129.94;;;6.95;72.71
70011;BME280;59543;37.950;-122.338;2022-12-22T09:07:31;102133.78;;;6.91;73.19
70011;BME280;59543;37.950;-122.338;2022-12-22T09:09:57;102122.81;;;6.95;73.03
70011;BME280;59543;37.950;-122.338;2022-12-22T09:12:23;102117.06;;;6.87;73.43
70011;BME280;59543;37.950;-122.338;2022-12-22T09:14:48;102118.75;;;6.88;73.81
70011;BME280;59543;37.950;-122.338;2022-12-22T09:17:14;102104.72;;;6.84;73.39
70011;BME280;59543;37.950;-122.338;2022-12-22T09:19:40;102100.59;;;6.79;73.69
70011;BME280;59543;37.950;-122.338;2022-12-22T09:22:06;102090.38;;;6.85;73.23
70011;BME280;59543;37.950;-122.338;2022-12-22T09:24:33;102087.41;;;6.76;73.12
70011;BME280;59543;37.950;-122.338;2022-12-22T09:26:59;102083.50;;;6.81;73.35
70011;BME280;59543;37.950;-122.338;2022-12-22T09:29:27;102080.53;;;6.72;73.54
70011;BME280;59543;37.950;-122.338;2022-12-22T09:31:53;102074.75;;;6.63;73.74
70011;BME280;59543;37.950;-122.338;2022-12-22T09:34:19;102068.31;;;6.82;72.99
70011;BME280;59543;37.950;-122.338;2022-12-22T09:36:45;102068.88;;;6.73;73.35
70011;BME280;59543;37.950;-122.338;2022-12-22T09:39:11;102077.00;;;6.85;72.85
70011;BME280;59543;37.950;-122.338;2022-12-22T09:46:38;102064.19;;;6.76;73.28
70011;BME280;59543;37.950;-122.338;2022-12-22T09:49:04;102058.75;;;6.78;73.33
70011;BME280;59543;37.950;-122.338;2022-12-22T09:51:31;102048.06;;;6.78;73.43
70011;BME280;59543;37.950;-122.338;2022-12-22T09:53:59;102042.72;;;6.78;72.97
70011;BME280;59543;37.950;-122.338;2022-12-22T09:56:26;102031.91;;;6.65;73.70
70011;BME280;59543;37.950;-122.338;2022-12-22T09:58:53;102034.59;;;6.65;73.99
70011;BME280;59543;37.950;-122.338;2022-12-22T10:01:28;102054.34;;;6.62;74.12
70011;BME280;59543;37.950;-122.338;2022-12-22T10:04:00;102047.84;;;6.67;74.23
70011;BME280;59543;37.950;-122.338;2022-12-22T10:08:54;102057.50;;;6.69;74.04
70011;BME280;59543;37.950;-122.338;2022-12-22T10:11:20;102048.63;;;6.69;73.96
70011;BME280;59543;37.950;-122.338;2022-12-22T10:13:46;102049.66;;;6.66;74.41
70011;BME280;59543;37.950;-122.338;2022-12-22T10:16:15;102056.94;;;6.78;74.05
70011;BME280;59543;37.950;-122.338;2022-12-22T10:18:44;102059.19;;;7.15;72.31
70011;BME280;59543;37.950;-122.338;2022-12-22T10:21:18;102053.19;;;7.25;72.30
70011;BME280;59543;37.950;-122.338;2022-12-22T10:23:47;102051.56;;;7.23;72.23
70011;BME280;59543;37.950;-122.338;2022-12-22T10:26:17;102039.78;;;7.11;72.54
70011;BME280;59543;37.950;-122.338;2022-12-22T10:28:47;102044.47;;;7.07;72.90
70011;BME280;59543;37.950;-122.338;2022-12-22T10:31:15;102040.44;;;7.00;72.95
70011;BME280;59543;37.950;-122.338;2022-12-22T10:33:42;102041.97;;;7.19;73.02
70011;BME280;59543;37.950;-122.338;2022-12-22T10:36:08;102046.22;;;7.23;72.63
70011;BME280;59543;37.950;-122.338;2022-12-22T10:41:13;102057.66;;;7.25;72.13
70011;BME280;59543;37.950;-122.338;2022-12-22T10:46:41;102038.63;;;7.01;73.17
70011;BME280;59543;37.950;-122.338;2022-12-22T10:51:34;102030.28;;;6.77;74.27
70011;BME280;59543;37.950;-122.338;2022-12-22T10:54:00;102030.91;;;6.96;73.94
70011;BME280;59543;37.950;-122.338;2022-12-22T10:56:27;102021.91;;;6.97;73.41
70011;BME280;59543;37.950;-122.338;2022-12-22T11:01:31;102033.59;;;7.10;73.29
70011;BME280;59543;37.950;-122.338;2022-12-22T11:04:13;102032.34;;;7.16;72.57
70011;BME280;59543;37.950;-122.338;2022-12-22T11:06:40;102025.06;;;7.04;73.24
70011;BME280;59543;37.950;-122.338;2022-12-22T11:09:07;102026.09;;;6.87;73.75
70011;BME280;59543;37.950;-122.338;2022-12-22T11:11:37;102028.81;;;7.01;73.45
70011;BME280;59543;37.950;-122.338;2022-12-22T11:14:14;102028.91;;;7.14;72.91
70011;BME280;59543;37.950;-122.338;2022-12-22T11:16:49;102033.19;;;7.02;73.43
70011;BME280;59543;37.950;-122.338;2022-12-22T11:22:14;102040.47;;;7.15;72.82
70011;BME280;59543;37.950;-122.338;2022-12-22T11:27:26;102038.56;;;7.17;72.76
70011;BME280;59543;37.950;-122.338;2022-12-22T11:30:00;102045.41;;;7.06;72.90
70011;BME280;59543;37.950;-122.338;2022-12-22T11:35:12;102050.84;;;6.91;73.34
70011;BME280;59543;37.950;-122.338;2022-12-22T11:37:52;102046.25;;;6.78;73.79
70011;BME280;59543;37.950;-122.338;2022-12-22T11:40:29;102038.53;;;6.88;73.88
70011;BME280;59543;37.950;-122.338;2022-12-22T11:43:14;102039.75;;;6.82;73.85
70011;BME280;59543;37.950;-122.338;2022-12-22T11:50:55;102068.09;;;6.71;74.89
70011;BME280;59543;37.950;-122.338;2022-12-22T11:56:22;102076.94;;;6.57;75.85
70011;BME280;59543;37.950;-122.338;2022-12-22T11:58:56;102058.13;;;6.58;76.03
70011;BME280;59543;37.950;-122.338;2022-12-22T12:14:16;102041.28;;;6.42;77.52
70011;BME280;59543;37.950;-122.338;2022-12-22T12:16:53;102045.41;;;6.48;77.44
70011;BME280;59543;37.950;-122.338;2022-12-22T12:19:26;102058.53;;;6.36;77.63
70011;BME280;59543;37.950;-122.338;2022-12-22T12:21:56;102061.03;;;6.39;77.36
70011;BME280;59543;37.950;-122.338;2022-12-22T12:27:10;102050.31;;;5.93;79.72
70011;BME280;59543;37.950;-122.338;2022-12-22T12:30:11;102043.25;;;6.08;79.36
70011;BME280;59543;37.950;-122.338;2022-12-22T12:37:46;102046.00;;;5.75;80.62
70011;BME280;59543;37.950;-122.338;2022-12-22T12:42:41;102023.41;;;5.65;82.23
70011;BME280;59543;37.950;-122.338;2022-12-22T12:47:52;102027.53;;;5.70;82.07
70011;BME280;59543;37.950;-122.338;2022-12-22T12:50:32;102019.88;;;5.64;82.36
70011;BME280;59543;37.950;-122.338;2022-12-22T12:53:02;102018.25;;;5.46;83.00
70011;BME280;59543;37.950;-122.338;2022-12-22T12:55:30;102021.75;;;5.46;83.34
70011;BME280;59543;37.950;-122.338;2022-12-22T12:57:57;102031.41;;;5.33;83.45
70011;BME280;59543;37.950;-122.338;2022-12-22T13:02:59;102034.50;;;5.41;84.17
70011;BME280;59543;37.950;-122.338;2022-12-22T13:10:39;102023.97;;;5.22;85.10
70011;BME280;59543;37.950;-122.338;2022-12-22T13:13:43;102012.09;;;5.12;85.63
70011;BME280;59543;37.950;-122.338;2022-12-22T13:18:44;101995.47;;;5.07;86.50
70011;BME280;59543;37.950;-122.338;2022-12-22T13:21:15;101991.84;;;5.08;86.01
70011;BME280;59543;37.950;-122.338;2022-12-22T13:24:25;101998.13;;;5.07;85.59
70011;BME280;59543;37.950;-122.338;2022-12-22T13:26:31;101990.75;;;5.12;86.09
70011;BME280;59543;37.950;-122.338;2022-12-22T13:28:59;101991.25;;;5.03;86.10
70011;BME280;59543;37.950;-122.338;2022-12-22T13:31:33;101994.00;;;5.17;86.10
70011;BME280;59543;37.950;-122.338;2022-12-22T13:36:32;102004.97;;;5.28;84.83
70011;BME280;59543;37.950;-122.338;2022-12-22T13:39:02;101998.94;;;5.41;84.61
70011;BME280;59543;37.950;-122.338;2022-12-22T13:41:28;101984.91;;;5.37;84.40
70011;BME280;59543;37.950;-122.338;2022-12-22T13:43:57;101983.72;;;5.27;84.87
70011;BME280;59543;37.950;-122.338;2022-12-22T13:46:25;101994.56;;;5.40;84.63
70011;BME280;59543;37.950;-122.338;2022-12-22T13:48:52;101997.47;;;5.35;84.46
70011;BME280;59543;37.950;-122.338;2022-12-22T13:51:23;102000.84;;;5.39;84.58
70011;BME280;59543;37.950;-122.338;2022-12-22T13:53:51;101997.13;;;5.41;83.87
70011;BME280;59543;37.950;-122.338;2022-12-22T13:56:23;101999.63;;;5.44;84.74
70011;BME280;59543;37.950;-122.338;2022-12-22T13:58:52;101998.19;;;5.70;83.00
70011;BME280;59543;37.950;-122.338;2022-12-22T14:01:20;101993.69;;;5.71;83.03
70011;BME280;59543;37.950;-122.338;2022-12-22T14:03:59;101992.22;;;5.65;83.14
70011;BME280;59543;37.950;-122.338;2022-12-22T14:11:36;102012.84;;;5.63;82.92
70011;BME280;59543;37.950;-122.338;2022-12-22T14:14:06;102019.28;;;5.59;83.43
70011;BME280;59543;37.950;-122.338;2022-12-22T14:16:32;102018.50;;;5.57;83.94
70011;BME280;59543;37.950;-122.338;2022-12-22T14:18:58;102024.59;;;5.43;84.26
70011;BME280;59543;37.950;-122.338;2022-12-22T14:21:24;102017.63;;;5.41;84.46
70011;BME280;59543;37.950;-122.338;2022-12-22T14:23:50;102014.28;;;5.53;83.56
70011;BME280;59543;37.950;-122.338;2022-12-22T14:26:17;102020.28;;;5.41;83.97